Time;durP1;ratioP1;P1;durP2;ratioP2;P2;SDS_P1;SDS_P2;PMS_P1;PMS_P2;Temp;Humidity;BMP_temperature;BMP_pressure;BME280_temperature;BME280_humidity;BME280_pressure;Samples;Min_cycle;Max_cycle;Signal;HPM_P1;HPM_P2
2024/02/29 00:02:11;;;;;;;3.20;1.50;;;;;;;2.85;74.67;101653.41;5055576;28;20480;-68
2024/02/29 00:04:38;;;;;;;2.77;1.50;;;;;;;2.85;74.54;101650.81;5055738;28;20639;-68
2024/02/29 00:07:05;;;;;;;2.57;1.50;;;;;;;2.86;74.55;101654.28;5055691;28;20523;-68
2024/02/29 00:09:35;;;;;;;4.17;1.40;;;;;;;2.86;74.47;101654.28;5055631;28;20440;-68
2024/02/29 00:12:02;;;;;;;3.67;1.30;;;;;;;2.87;74.58;101653.44;5055414;28;20450;-68
2024/02/29 00:14:29;;;;;;;2.77;1.17;;;;;;;2.88;74.66;101657.78;5055355;28;20941;-68
2024/02/29 00:16:58;;;;;;;2.07;1.40;;;;;;;2.88;74.31;101657.78;5055363;28;20443;-68
2024/02/29 00:19:24;;;;;;;2.77;1.30;;;;;;;2.88;74.78;101657.78;5055291;28;20811;-68
2024/02/29 00:21:51;;;;;;;3.70;1.60;;;;;;;2.88;74.38;101653.47;5048591;28;20495;-68
2024/02/29 00:24:18;;;;;;;4.77;1.73;;;;;;;2.88;74.44;101658.66;5035377;28;20446;-69
2024/02/29 00:26:47;;;;;;;2.87;1.30;;;;;;;2.90;74.45;101671.59;5035349;28;20779;-68
2024/02/29 00:29:14;;;;;;;3.40;1.63;;;;;;;2.89;74.39;101673.31;5035173;28;20446;-68
2024/02/29 00:31:44;;;;;;;2.00;1.50;;;;;;;2.89;74.47;101669.84;5034580;28;20436;-69
2024/02/29 00:34:11;;;;;;;4.47;2.00;;;;;;;2.90;74.47;101675.06;5035366;28;20920;-68
2024/02/29 00:36:38;;;;;;;2.77;1.27;;;;;;;2.91;74.46;101678.53;5035066;28;20446;-68
2024/02/29 00:39:06;;;;;;;1.50;1.40;;;;;;;2.92;74.57;101680.25;5035110;28;20447;-68
2024/02/29 00:41:33;;;;;;;2.53;1.43;;;;;;;2.91;74.42;101681.09;5035052;28;20482;-79
2024/02/29 00:44:02;;;;;;;4.50;1.77;;;;;;;2.91;74.50;101676.81;5035073;28;20527;-79
2024/02/29 00:46:28;;;;;;;2.43;1.63;;;;;;;2.91;74.49;101678.53;5035215;28;20448;-79
2024/02/29 00:48:55;;;;;;;3.13;1.50;;;;;;;2.93;74.58;101679.44;5035134;28;20942;-79
2024/02/29 00:51:22;;;;;;;3.17;1.50;;;;;;;2.93;74.52;101680.31;5035408;28;20818;-80
2024/02/29 00:53:49;;;;;;;4.53;1.50;;;;;;;2.93;74.47;101676.84;5034874;28;20444;-79
2024/02/29 00:56:16;;;;;;;4.73;1.70;;;;;;;2.94;74.47;101681.19;5034894;28;20471;-79
2024/02/29 00:58:43;;;;;;;3.43;1.63;;;;;;;2.94;74.47;101694.09;5034920;28;20442;-79
2024/02/29 01:01:11;;;;;;;4.43;1.60;;;;;;;2.94;74.53;101687.22;5034875;28;20466;-71
2024/02/29 01:03:38;;;;;;;3.43;1.40;;;;;;;2.95;74.72;101686.38;5034628;28;20482;-71
2024/02/29 01:06:06;;;;;;;5.73;1.70;;;;;;;2.95;74.53;101695.84;5034595;28;20444;-71
2024/02/29 01:08:33;;;;;;;5.43;1.73;;;;;;;2.96;74.64;101693.31;5034578;28;20440;-71
2024/02/29 01:11:00;;;;;;;4.13;1.97;;;;;;;2.96;74.50;101697.59;5034441;28;20442;-71
2024/02/29 01:13:27;;;;;;;3.83;2.13;;;;;;;2.97;74.57;101701.94;5045842;28;20444;-71
2024/02/29 01:15:54;;;;;;;5.27;1.90;;;;;;;2.97;74.66;101704.50;5054360;28;20446;-70
2024/02/29 01:18:22;;;;;;;2.37;1.30;;;;;;;2.97;74.76;101704.50;5054310;28;20777;-71
2024/02/29 01:20:49;;;;;;;4.60;1.57;;;;;;;2.98;74.67;101706.25;5054109;28;20445;-72
2024/02/29 01:23:16;;;;;;;3.30;1.43;;;;;;;2.99;74.65;101693.38;5054152;28;20490;-72
2024/02/29 01:25:43;;;;;;;3.07;1.70;;;;;;;2.98;74.55;101696.78;5054195;28;20441;-71
2024/02/29 01:28:10;;;;;;;3.77;1.47;;;;;;;2.98;74.67;101701.06;5054136;28;20471;-71
2024/02/29 01:30:37;;;;;;;5.80;1.50;;;;;;;2.99;74.51;101703.72;5054212;28;20437;-71
2024/02/29 01:33:04;;;;;;;3.57;1.63;;;;;;;3.00;74.45;101699.41;5053898;28;20449;-71
2024/02/29 01:35:32;;;;;;;2.70;1.80;;;;;;;3.00;74.58;101702.00;5053946;28;20815;-71
2024/02/29 01:37:59;;;;;;;3.73;1.63;;;;;;;3.00;74.48;101695.09;5053883;28;20817;-70
2024/02/29 01:40:26;;;;;;;3.30;1.60;;;;;;;3.00;74.61;101705.44;5053734;28;20968;-71
2024/02/29 01:42:53;;;;;;;3.13;1.70;;;;;;;3.01;74.70;101693.38;5052826;28;20472;-71
2024/02/29 01:45:19;;;;;;;3.13;1.53;;;;;;;3.01;74.50;101690.81;5053740;28;20447;-71
2024/02/29 01:47:46;;;;;;;3.80;1.63;;;;;;;3.02;74.66;101687.41;5053754;28;20453;-71
2024/02/29 01:50:16;;;;;;;2.33;1.53;;;;;;;3.02;74.47;101677.06;5053614;28;20437;-72
2024/02/29 01:52:45;;;;;;;2.17;1.40;;;;;;;3.03;74.70;101678.78;5053643;28;20796;-71
2024/02/29 01:55:14;;;;;;;2.97;2.20;;;;;;;3.02;74.85;101677.94;5053249;28;20966;-71
2024/02/29 01:57:41;;;;;;;5.33;2.13;;;;;;;3.02;74.54;101667.59;5053631;28;20447;-71
2024/02/29 02:00:09;;;;;;;5.43;1.80;;;;;;;3.02;74.50;101669.31;5053470;28;20922;-71
2024/02/29 02:02:37;;;;;;;5.20;1.90;;;;;;;3.03;74.51;101674.50;5053321;28;20478;-71
2024/02/29 02:05:05;;;;;;;5.73;1.80;;;;;;;3.03;74.72;101682.25;5053341;28;20536;-71
2024/02/29 02:07:35;;;;;;;6.10;2.17;;;;;;;3.04;74.48;101680.53;5053258;28;20440;-71
2024/02/29 02:10:05;;;;;;;4.70;1.70;;;;;;;3.04;74.34;101684.00;5053337;28;20515;-71
2024/02/29 02:12:32;;;;;;;7.50;2.10;;;;;;;3.05;74.80;101684.88;5053256;28;20451;-77
2024/02/29 02:15:01;;;;;;;4.67;1.80;;;;;;;3.03;74.44;101677.06;5053424;28;20475;-76
2024/02/29 02:17:29;;;;;;;5.40;1.80;;;;;;;3.03;74.39;101676.22;5053143;28;20444;-76
2024/02/29 02:19:56;;;;;;;5.77;1.90;;;;;;;3.06;74.42;101678.88;5053520;28;20859;-76
2024/02/29 02:22:26;;;;;;;5.83;1.67;;;;;;;3.06;74.45;101684.03;5052974;28;20489;-76
2024/02/29 02:24:53;;;;;;;7.97;2.40;;;;;;;3.06;74.41;101689.19;5053117;28;20444;-77
2024/02/29 02:27:20;;;;;;;3.47;1.70;;;;;;;3.01;74.65;101670.13;5052996;28;20451;-76
2024/02/29 02:29:47;;;;;;;3.63;1.73;;;;;;;3.07;74.56;101688.38;5052957;28;20449;-76
2024/02/29 02:32:14;;;;;;;3.13;1.80;;;;;;;3.07;74.51;101672.88;5053153;28;20815;-76
2024/02/29 02:34:41;;;;;;;5.93;1.83;;;;;;;3.06;74.50;101679.72;5052986;28;20426;-77
2024/02/29 02:37:08;;;;;;;5.03;1.77;;;;;;;3.09;74.46;101678.06;5052850;28;20898;-77
2024/02/29 02:39:36;;;;;;;5.33;2.40;;;;;;;3.08;74.52;101672.03;5052811;28;20434;-77
2024/02/29 02:42:03;;;;;;;6.83;2.23;;;;;;;3.09;74.47;101676.34;5052699;28;20452;-76
2024/02/29 02:44:30;;;;;;;4.50;1.87;;;;;;;3.10;74.41;101684.97;5052839;28;20512;-76
2024/02/29 02:46:56;;;;;;;5.03;2.03;;;;;;;3.10;74.38;101684.97;5052720;28;20440;-76
2024/02/29 02:49:23;;;;;;;4.80;1.70;;;;;;;3.09;74.31;101678.06;5052888;28;20438;-76
2024/02/29 02:51:50;;;;;;;3.53;1.60;;;;;;;3.09;74.56;101684.09;5052864;28;20437;-77
2024/02/29 02:54:17;;;;;;;5.20;2.10;;;;;;;3.09;74.10;101678.94;5052433;28;20440;-76
2024/02/29 02:56:45;;;;;;;4.63;1.80;;;;;;;3.10;74.49;101679.78;5052644;28;20479;-76
2024/02/29 02:59:12;;;;;;;6.70;2.17;;;;;;;3.09;74.35;101678.94;5052601;28;20931;-77
2024/02/29 03:01:39;;;;;;;6.57;1.87;;;;;;;3.11;74.35;101689.31;5052666;28;20443;-71
2024/02/29 03:04:06;;;;;;;4.03;1.73;;;;;;;3.10;74.39;101685.88;5052308;28;20485;-71
2024/02/29 03:06:33;;;;;;;5.80;1.80;;;;;;;3.10;74.27;101685.88;5052488;28;20441;-71
2024/02/29 03:09:00;;;;;;;6.03;2.10;;;;;;;3.11;74.31;101676.41;5052472;28;20926;-71
2024/02/29 03:11:26;;;;;;;5.97;2.27;;;;;;;3.11;74.70;101669.50;5052392;28;20440;-71
2024/02/29 03:13:55;;;;;;;4.00;1.70;;;;;;;3.11;74.27;101672.09;5033523;28;20449;-71
2024/02/29 03:16:23;;;;;;;4.93;1.93;;;;;;;3.11;74.41;101666.06;5032487;28;20442;-71
2024/02/29 03:18:50;;;;;;;3.30;1.80;;;;;;;3.10;74.37;101662.59;5032487;28;20437;-71
2024/02/29 03:21:16;;;;;;;5.00;2.10;;;;;;;3.10;74.36;101665.19;5032499;28;20930;-71
2024/02/29 03:23:43;;;;;;;3.83;2.10;;;;;;;3.10;74.42;101649.66;5032209;28;21002;-71
2024/02/29 03:26:10;;;;;;;6.47;2.40;;;;;;;3.09;74.37;101662.53;5032391;28;20950;-71
2024/02/29 03:28:37;;;;;;;5.63;2.63;;;;;;;3.11;74.46;101660.88;5032694;28;20804;-71
2024/02/29 03:31:10;;;;;;;5.50;2.23;;;;;;;3.09;74.30;101650.50;5032450;28;20435;-71
2024/02/29 03:33:37;;;;;;;5.50;1.97;;;;;;;3.10;74.30;101659.09;5032299;28;20449;-71
2024/02/29 03:36:04;;;;;;;6.27;2.33;;;;;;;3.08;74.39;101646.16;5032367;28;20487;-71
2024/02/29 03:38:31;;;;;;;6.17;2.30;;;;;;;3.06;74.26;101643.53;5032302;28;20812;-71
2024/02/29 03:40:58;;;;;;;5.43;2.20;;;;;;;3.06;74.13;101637.50;5032339;28;20446;-71
2024/02/29 03:43:25;;;;;;;7.23;2.50;;;;;;;3.06;74.20;101633.19;5032160;28;20486;-71
2024/02/29 03:45:52;;;;;;;5.47;2.53;;;;;;;3.06;74.32;101622.84;5032280;28;20803;-71
2024/02/29 03:48:20;;;;;;;6.53;2.20;;;;;;;3.06;74.40;101622.84;5032298;28;20884;-71
2024/02/29 03:50:47;;;;;;;2.87;1.87;;;;;;;3.06;74.30;101617.69;5032194;28;20469;-71
2024/02/29 03:53:14;;;;;;;5.10;1.90;;;;;;;3.06;74.38;101617.69;5032135;28;20455;-71
2024/02/29 03:55:43;;;;;;;6.23;2.60;;;;;;;3.06;74.39;101619.41;5032058;28;20464;-71
2024/02/29 03:58:10;;;;;;;3.53;1.73;;;;;;;3.07;74.16;101613.41;5032154;28;20953;-71
2024/02/29 04:00:36;;;;;;;5.90;2.17;;;;;;;3.06;74.31;101614.22;5031998;28;20442;-71
2024/02/29 04:03:03;;;;;;;6.47;2.33;;;;;;;3.08;74.16;101620.31;5031912;28;20492;-71
2024/02/29 04:05:32;;;;;;;5.00;2.20;;;;;;;3.08;74.15;101622.91;5032802;28;20772;-72
2024/02/29 04:08:03;;;;;;;5.07;2.20;;;;;;;3.06;74.23;101619.41;5035542;28;20441;-71
2024/02/29 04:10:30;;;;;;;4.77;2.10;;;;;;;3.08;74.17;101622.91;5035560;28;20535;-77
2024/02/29 04:12:58;;;;;;;6.03;2.27;;;;;;;3.06;74.14;101619.41;5035550;28;20936;-76
2024/02/29 04:15:24;;;;;;;5.83;2.87;;;;;;;3.05;74.36;101631.47;5035980;28;20814;-76
2024/02/29 04:17:51;;;;;;;10.10;2.97;;;;;;;3.06;74.35;101619.41;5035519;28;20946;-76
2024/02/29 04:20:18;;;;;;;7.13;2.47;;;;;;;3.05;74.33;101610.78;5035501;28;20817;-76
2024/02/29 04:22:47;;;;;;;4.70;2.30;;;;;;;3.04;74.32;101614.22;5035316;28;20482;-76
2024/02/29 04:25:16;;;;;;;4.77;1.83;;;;;;;3.02;74.38;101604.66;5035241;28;20517;-77
2024/02/29 04:27:43;;;;;;;6.80;2.33;;;;;;;3.03;74.22;101612.44;5035405;28;20813;-76
2024/02/29 04:30:11;;;;;;;7.40;2.23;;;;;;;3.02;73.94;101609.84;5035418;28;20442;-69
2024/02/29 04:32:39;;;;;;;3.73;2.10;;;;;;;3.05;74.14;101604.75;5035254;28;20429;-69
2024/02/29 04:35:06;;;;;;;7.90;2.60;;;;;;;3.03;74.14;101607.28;5035138;28;20501;-68
2024/02/29 04:37:33;;;;;;;6.63;2.40;;;;;;;3.01;74.32;101608.06;5035248;28;20446;-68
2024/02/29 04:40:03;;;;;;;5.47;2.17;;;;;;;3.03;74.13;101614.16;5035083;28;20448;-68
2024/02/29 04:42:30;;;;;;;5.07;2.37;;;;;;;3.01;74.16;101615.84;5034897;28;20437;-68
2024/02/29 04:44:57;;;;;;;5.27;2.70;;;;;;;3.01;73.96;101613.25;5034873;28;20919;-68
2024/02/29 04:47:24;;;;;;;6.23;2.20;;;;;;;3.01;74.14;101616.72;5034887;28;20441;-68
2024/02/29 04:49:52;;;;;;;5.83;2.77;;;;;;;2.99;74.13;101617.53;5034879;28;20453;-68
2024/02/29 04:52:19;;;;;;;6.80;2.60;;;;;;;2.96;74.19;101620.91;5034918;28;20567;-68
2024/02/29 04:54:46;;;;;;;6.40;3.10;;;;;;;2.97;73.95;101624.38;5034799;28;20547;-68
2024/02/29 04:57:15;;;;;;;7.27;2.73;;;;;;;2.96;74.08;101614.88;5034652;28;20447;-68
2024/02/29 04:59:42;;;;;;;6.73;2.80;;;;;;;2.96;73.96;101612.31;5034761;28;20436;-68
2024/02/29 05:02:09;;;;;;;6.87;2.63;;;;;;;2.95;74.08;101613.13;5034611;28;20427;-68
2024/02/29 05:04:37;;;;;;;6.03;2.33;;;;;;;2.95;74.03;101610.53;5034623;28;20820;-68
2024/02/29 05:07:04;;;;;;;6.67;2.67;;;;;;;2.94;73.90;101604.50;5034539;28;20529;-68
2024/02/29 05:09:31;;;;;;;5.57;2.43;;;;;;;2.91;73.79;101599.25;5034521;28;20939;-69
2024/02/29 05:11:58;;;;;;;7.67;2.53;;;;;;;2.92;74.24;101613.06;5040762;28;20448;-68
2024/02/29 05:14:26;;;;;;;5.37;2.47;;;;;;;2.91;73.99;101611.31;5054308;28;20453;-68
2024/02/29 05:16:53;;;;;;;6.43;2.63;;;;;;;2.89;74.15;101607.81;5054423;28;20452;-68
2024/02/29 05:19:20;;;;;;;5.47;2.50;;;;;;;2.88;74.10;101606.09;5054137;28;20820;-68
2024/02/29 05:21:47;;;;;;;9.40;2.93;;;;;;;2.86;74.24;101602.59;5054511;28;20477;-77
2024/02/29 05:24:14;;;;;;;5.57;2.90;;;;;;;2.86;73.98;101611.19;5054081;28;20488;-76
2024/02/29 05:26:41;;;;;;;6.67;2.47;;;;;;;2.80;73.88;101608.47;5054276;28;20440;-77
2024/02/29 05:29:07;;;;;;;5.27;2.37;;;;;;;2.82;73.85;101623.19;5054102;28;20450;-76
2024/02/29 05:31:36;;;;;;;6.53;2.90;;;;;;;2.86;73.55;101621.53;5053253;28;20436;-76
2024/02/29 05:34:03;;;;;;;5.27;3.20;;;;;;;2.84;73.59;101628.38;5053997;28;20214;-77
2024/02/29 05:36:29;;;;;;;8.00;2.77;;;;;;;2.82;73.77;101630.94;5053946;28;20454;-76
2024/02/29 05:38:56;;;;;;;4.43;2.63;;;;;;;2.81;73.67;101628.31;5054148;28;20444;-75
2024/02/29 05:41:23;;;;;;;5.17;2.50;;;;;;;2.79;73.70;101646.38;5053797;28;20457;-70
2024/02/29 05:43:51;;;;;;;7.00;2.93;;;;;;;2.73;73.74;101641.06;5053754;28;20494;-70
2024/02/29 05:46:18;;;;;;;5.07;2.43;;;;;;;2.72;73.62;101644.47;5053808;28;20439;-70
2024/02/29 05:48:46;;;;;;;8.90;3.00;;;;;;;2.72;73.66;101646.19;5053812;28;20813;-70
2024/02/29 05:51:13;;;;;;;3.93;2.67;;;;;;;2.69;73.76;101653.88;5053567;28;20936;-70
2024/02/29 05:53:40;;;;;;;4.97;2.67;;;;;;;2.67;73.80;101650.38;5053505;28;20439;-70
2024/02/29 05:56:07;;;;;;;4.97;2.83;;;;;;;2.66;73.92;101640.88;5053528;28;20475;-71
2024/02/29 05:58:34;;;;;;;5.63;2.70;;;;;;;2.63;73.92;101646.84;5053409;28;20508;-70
2024/02/29 06:01:01;;;;;;;5.90;2.53;;;;;;;2.62;73.90;101650.28;5053410;28;20435;-70
2024/02/29 06:03:28;;;;;;;7.60;3.20;;;;;;;2.60;73.79;101649.38;5053297;28;20568;-70
2024/02/29 06:05:56;;;;;;;6.50;2.80;;;;;;;2.59;74.00;101645.03;5053285;28;20440;-70
2024/02/29 06:08:23;;;;;;;8.73;3.10;;;;;;;2.57;74.24;101646.72;5053384;28;20448;-70
2024/02/29 06:10:50;;;;;;;9.33;3.30;;;;;;;2.56;74.10;101648.44;5053308;28;20443;-70
2024/02/29 06:13:17;;;;;;;6.20;3.17;;;;;;;2.55;74.10;101649.25;5053370;28;20813;-70
2024/02/29 06:15:44;;;;;;;11.47;3.77;;;;;;;2.55;74.04;101650.97;5053049;28;20449;-70
2024/02/29 06:18:13;;;;;;;5.77;3.33;;;;;;;2.54;74.18;101647.50;5053146;28;20574;-70
2024/02/29 06:20:40;;;;;;;8.07;3.20;;;;;;;2.53;74.32;101650.03;5053098;28;20447;-70
2024/02/29 06:23:08;;;;;;;7.57;3.23;;;;;;;2.52;74.27;101638.84;5052910;28;20441;-70
2024/02/29 06:25:35;;;;;;;8.40;3.90;;;;;;;2.52;74.51;101643.13;5053000;28;20437;-71
2024/02/29 06:28:02;;;;;;;7.57;3.20;;;;;;;2.50;74.40;101640.53;5052686;28;20442;-70
2024/02/29 06:30:31;;;;;;;9.57;4.00;;;;;;;2.50;74.52;101640.53;5052926;28;20920;-71
2024/02/29 06:32:58;;;;;;;7.83;3.70;;;;;;;2.47;74.51;101634.41;5052854;28;20431;-71
2024/02/29 06:35:25;;;;;;;7.63;3.40;;;;;;;2.51;74.79;101646.56;5052908;28;20797;-71
2024/02/29 06:37:52;;;;;;;9.33;4.30;;;;;;;2.44;74.61;101629.16;5052887;28;20442;-71
2024/02/29 06:40:22;;;;;;;6.97;3.60;;;;;;;2.51;74.58;101643.97;5052974;28;20442;-71
2024/02/29 06:42:50;;;;;;;6.20;3.20;;;;;;;2.51;74.29;101643.97;5052878;28;20871;-71
2024/02/29 06:45:17;;;;;;;11.13;3.43;;;;;;;2.50;74.64;101645.69;5052588;28;20544;-71
2024/02/29 06:47:43;;;;;;;11.00;4.50;;;;;;;2.51;74.71;101636.22;5052718;28;20498;-71
2024/02/29 06:50:11;;;;;;;8.80;3.80;;;;;;;2.51;74.72;101631.94;5052856;28;20456;-72
2024/02/29 06:52:38;;;;;;;9.47;4.37;;;;;;;2.51;74.59;101638.81;5052851;28;20477;-70
2024/02/29 06:55:07;;;;;;;8.57;4.40;;;;;;;2.51;74.48;101633.66;5052815;28;20466;-70
2024/02/29 06:57:36;;;;;;;9.07;4.13;;;;;;;2.50;74.51;101637.94;5052481;28;20445;-70
2024/02/29 07:00:05;;;;;;;6.50;3.70;;;;;;;2.52;74.72;101643.13;5052795;28;20439;-70
2024/02/29 07:02:32;;;;;;;8.20;3.67;;;;;;;2.52;74.71;101633.66;5052784;28;20433;-70
2024/02/29 07:04:59;;;;;;;7.93;4.07;;;;;;;2.52;74.85;101638.84;5052374;28;20983;-70
2024/02/29 07:07:26;;;;;;;9.57;4.27;;;;;;;2.53;74.87;101642.28;5052496;28;20427;-70
2024/02/29 07:09:54;;;;;;;10.40;3.80;;;;;;;2.54;74.86;101641.47;5052400;28;21497;-70
2024/02/29 07:12:21;;;;;;;10.23;5.03;;;;;;;2.55;74.88;101638.03;5052171;28;20444;-70
2024/02/29 07:14:49;;;;;;;7.97;4.00;;;;;;;2.56;74.92;101638.09;5052342;28;20441;-70
2024/02/29 07:17:16;;;;;;;8.30;4.13;;;;;;;2.57;74.84;101634.66;5052489;28;20436;-70
2024/02/29 07:19:43;;;;;;;9.27;4.87;;;;;;;2.57;74.90;101637.25;5052400;28;20439;-70
2024/02/29 07:22:11;;;;;;;12.63;4.83;;;;;;;2.57;74.86;101638.97;5052660;28;20437;-70
2024/02/29 07:24:38;;;;;;;9.03;4.47;;;;;;;2.60;74.91;101644.19;5052247;28;20570;-70
2024/02/29 07:27:05;;;;;;;9.37;4.93;;;;;;;2.62;75.00;101644.25;5052482;28;20432;-70
2024/02/29 07:29:32;;;;;;;10.87;4.80;;;;;;;2.63;74.99;101646.84;5052222;28;20443;-70
2024/02/29 07:32:00;;;;;;;10.40;4.67;;;;;;;2.65;74.90;101641.75;5052176;28;20448;-70
2024/02/29 07:34:27;;;;;;;8.00;4.50;;;;;;;2.65;75.08;101645.19;5052281;28;20451;-70
2024/02/29 07:36:54;;;;;;;13.73;5.47;;;;;;;2.66;74.99;101654.69;5052201;28;20627;-70
2024/02/29 07:39:21;;;;;;;9.47;4.57;;;;;;;2.68;75.04;101653.00;5052229;28;20450;-70
2024/02/29 07:41:48;;;;;;;11.07;5.10;;;;;;;2.70;75.11;101648.75;5055066;28;20431;-71
2024/02/29 07:44:15;;;;;;;12.77;4.93;;;;;;;2.72;75.24;101652.22;5056084;28;20480;-71
2024/02/29 07:46:42;;;;;;;10.00;4.63;;;;;;;2.74;75.25;101645.41;5056187;28;20458;-71
2024/02/29 07:49:11;;;;;;;12.83;5.30;;;;;;;2.75;75.31;101643.69;5055969;28;20442;-71
2024/02/29 07:51:38;;;;;;;9.87;5.57;;;;;;;2.77;75.23;101644.59;5055833;28;20430;-71
2024/02/29 07:54:05;;;;;;;10.03;4.50;;;;;;;2.79;75.14;101628.28;5056163;28;20534;-72
2024/02/29 07:56:32;;;;;;;12.27;6.00;;;;;;;2.79;75.37;101627.44;5055932;28;20832;-71
2024/02/29 07:58:58;;;;;;;13.63;6.13;;;;;;;2.80;75.29;101630.03;5055901;28;20964;-71
2024/02/29 08:01:25;;;;;;;10.93;5.77;;;;;;;2.82;75.41;101630.06;5055746;28;20809;-68
2024/02/29 08:03:52;;;;;;;12.37;5.93;;;;;;;2.85;75.20;101637.03;5055678;28;20848;-68
2024/02/29 08:06:20;;;;;;;8.67;5.27;;;;;;;2.86;75.40;101643.94;5055895;28;20922;-68
2024/02/29 08:08:47;;;;;;;12.10;5.80;;;;;;;2.86;75.55;101644.81;5055504;28;20449;-68
2024/02/29 08:11:14;;;;;;;10.33;5.27;;;;;;;2.87;75.30;101646.56;5055724;28;20440;-69
2024/02/29 08:13:41;;;;;;;11.00;5.47;;;;;;;2.89;75.40;101647.44;5055567;28;20440;-68
2024/02/29 08:16:08;;;;;;;9.20;5.63;;;;;;;2.89;75.13;101644.88;5055430;28;20440;-69
2024/02/29 08:18:35;;;;;;;10.83;5.60;;;;;;;2.91;75.28;101647.50;5055536;28;20444;-68
2024/02/29 08:21:03;;;;;;;9.03;5.30;;;;;;;2.92;75.22;101654.41;5055394;28;20493;-68
2024/02/29 08:23:32;;;;;;;9.73;5.27;;;;;;;2.94;75.20;101647.56;5055208;28;20444;-68
2024/02/29 08:25:59;;;;;;;9.77;5.00;;;;;;;2.94;75.18;101648.44;5055166;28;20485;-68
2024/02/29 08:28:26;;;;;;;11.60;5.50;;;;;;;2.96;75.24;101657.09;5055086;28;20439;-68
2024/02/29 08:30:52;;;;;;;9.20;4.70;;;;;;;2.96;75.29;101654.53;5055201;28;20439;-69
2024/02/29 08:33:19;;;;;;;8.30;4.90;;;;;;;2.99;75.15;101651.13;5055055;28;20452;-68
2024/02/29 08:35:46;;;;;;;9.67;5.10;;;;;;;2.99;75.22;101640.81;5055021;28;20476;-68
2024/02/29 08:38:13;;;;;;;10.00;5.00;;;;;;;3.00;74.97;101646.00;5055153;28;20772;-68
2024/02/29 08:40:40;;;;;;;9.83;4.97;;;;;;;3.02;75.16;101640.88;5054925;28;20827;-68
2024/02/29 08:43:07;;;;;;;7.87;5.63;;;;;;;3.03;75.10;101652.94;5054963;28;20448;-68
2024/02/29 08:45:34;;;;;;;11.60;5.37;;;;;;;3.05;75.12;101646.09;5054769;28;20476;-68
2024/02/29 08:48:01;;;;;;;9.20;5.43;;;;;;;3.07;75.07;101649.59;5055068;28;20437;-68
2024/02/29 08:50:28;;;;;;;12.13;5.10;;;;;;;3.10;74.93;101647.09;5055121;28;20493;-71
2024/02/29 08:52:54;;;;;;;9.83;5.90;;;;;;;3.05;74.87;101636.63;5054432;28;20446;-70
2024/02/29 08:55:21;;;;;;;9.70;5.00;;;;;;;3.15;75.28;101652.34;5054945;28;20468;-71
2024/02/29 08:57:50;;;;;;;8.90;5.60;;;;;;;3.19;74.95;101643.81;5054828;28;20928;-70
2024/02/29 09:00:17;;;;;;;8.43;4.77;;;;;;;3.21;75.00;101655.06;5054590;28;20439;-70
2024/02/29 09:02:45;;;;;;;8.00;4.33;;;;;;;3.21;75.06;101650.78;5054461;28;20833;-70
2024/02/29 09:05:12;;;;;;;8.23;5.10;;;;;;;3.23;74.87;101653.38;5054458;28;20527;-70
2024/02/29 09:07:39;;;;;;;11.27;4.77;;;;;;;3.26;74.91;101664.66;5054356;28;20444;-70
2024/02/29 09:10:09;;;;;;;9.67;4.93;;;;;;;3.28;75.02;101654.34;5054341;28;20917;-71
2024/02/29 09:12:36;;;;;;;11.47;5.60;;;;;;;3.29;74.98;101646.63;5054176;28;20456;-68
2024/02/29 09:15:05;;;;;;;13.00;6.00;;;;;;;3.34;74.78;101656.19;5054300;28;20915;-68
2024/02/29 09:17:32;;;;;;;10.00;4.93;;;;;;;3.35;74.85;101656.22;5054837;28;20455;-68
2024/02/29 09:19:59;;;;;;;10.00;5.23;;;;;;;3.37;74.85;101651.09;5054317;28;20438;-68
2024/02/29 09:22:26;;;;;;;11.80;5.20;;;;;;;3.39;74.53;101647.69;5054277;28;20441;-68
2024/02/29 09:24:53;;;;;;;10.43;4.37;;;;;;;3.42;74.76;101646.91;5054132;28;20480;-68
2024/02/29 09:27:20;;;;;;;10.07;5.63;;;;;;;3.46;74.51;101648.69;5054192;28;20534;-69
2024/02/29 09:29:47;;;;;;;11.90;5.60;;;;;;;3.49;74.64;101648.75;5054178;28;20806;-68
2024/02/29 09:32:15;;;;;;;9.90;5.50;;;;;;;3.51;74.77;101649.66;5054240;28;20925;-68
2024/02/29 09:34:44;;;;;;;10.60;6.43;;;;;;;3.53;74.51;101644.53;5054002;28;20447;-69
2024/02/29 09:37:10;;;;;;;9.30;5.53;;;;;;;3.55;74.59;101646.28;5053932;28;20512;-68
2024/02/29 09:39:37;;;;;;;12.10;5.70;;;;;;;3.58;74.50;101640.28;5053912;28;20424;-69
2024/02/29 09:42:05;;;;;;;10.87;6.20;;;;;;;3.59;74.48;101637.75;5053740;28;20495;-69
2024/02/29 09:44:33;;;;;;;9.90;5.03;;;;;;;3.62;74.50;101642.13;5053989;28;20564;-68
2024/02/29 09:47:00;;;;;;;10.67;6.00;;;;;;;3.63;74.53;101631.78;5053929;28;20456;-68
2024/02/29 09:49:29;;;;;;;12.60;6.30;;;;;;;3.66;74.21;101625.78;5054071;28;20443;-68
2024/02/29 09:51:56;;;;;;;7.83;5.07;;;;;;;3.67;74.38;101625.84;5053616;28;20439;-69
2024/02/29 09:54:23;;;;;;;9.70;5.43;;;;;;;3.69;74.25;101620.69;5053473;28;20451;-69
2024/02/29 09:56:49;;;;;;;9.87;5.60;;;;;;;3.67;74.01;101625.84;5053682;28;20428;-68
2024/02/29 09:59:17;;;;;;;8.73;5.13;;;;;;;3.70;74.13;101633.66;5053362;28;20438;-68
2024/02/29 10:01:45;;;;;;;10.23;5.93;;;;;;;3.72;73.89;101623.31;5053801;28;20441;-68
2024/02/29 10:04:12;;;;;;;13.07;6.03;;;;;;;3.72;74.06;101625.91;5052661;28;20495;-69
2024/02/29 10:06:41;;;;;;;9.73;5.73;;;;;;;3.73;73.92;101623.38;5053347;28;20808;-68
2024/02/29 10:09:08;;;;;;;10.27;5.63;;;;;;;3.73;73.45;101610.44;5053276;28;20523;-68
2024/02/29 10:11:40;;;;;;;10.60;6.20;;;;;;;3.76;73.79;101613.94;5053195;28;20475;-69
2024/02/29 10:14:19;;;;;;;9.80;5.70;;;;;;;3.77;73.95;101611.34;5053117;28;20452;-68
2024/02/29 10:16:50;;;;;;;10.47;5.30;;;;;;;3.78;73.79;101605.34;5053306;28;20436;-68
2024/02/29 10:19:16;;;;;;;11.27;5.00;;;;;;;3.80;73.74;101614.00;5053027;28;20447;-68
2024/02/29 10:21:45;;;;;;;12.23;5.83;;;;;;;3.80;73.59;101619.16;5053478;28;20438;-79
2024/02/29 10:24:12;;;;;;;11.40;6.43;;;;;;;3.79;73.71;101604.50;5053601;28;20440;-80
2024/02/29 10:26:39;;;;;;;12.00;5.90;;;;;;;3.83;73.66;101610.59;5053308;28;20436;-79
2024/02/29 10:29:06;;;;;;;9.73;6.00;;;;;;;3.84;73.56;101610.63;5053330;28;20448;-80
2024/02/29 10:31:33;;;;;;;14.03;6.60;;;;;;;3.86;73.64;101610.66;5053144;28;20484;-79
2024/02/29 10:34:00;;;;;;;14.90;6.80;;;;;;;3.88;73.41;101611.56;5053275;28;20426;-79
2024/02/29 10:36:27;;;;;;;9.93;5.57;;;;;;;3.91;73.62;101603.84;5053164;28;20444;-79
2024/02/29 10:38:56;;;;;;;12.60;5.77;;;;;;;3.94;73.41;101601.31;5053221;28;20718;-79
2024/02/29 10:41:24;;;;;;;11.27;5.10;;;;;;;3.96;73.32;101595.31;5053178;28;20468;-79
2024/02/29 10:43:52;;;;;;;10.43;5.70;;;;;;;3.99;73.13;101602.25;5053167;28;20931;-79
2024/02/29 10:46:20;;;;;;;7.67;4.37;;;;;;;4.03;72.84;101609.22;5052901;28;21016;-79
2024/02/29 10:48:50;;;;;;;9.10;4.03;;;;;;;4.05;72.94;101612.72;5053288;28;20818;-79
2024/02/29 10:51:25;;;;;;;7.17;4.33;;;;;;;4.09;72.91;101611.06;5052968;28;20938;-79
2024/02/29 10:54:06;;;;;;;9.23;5.23;;;;;;;4.13;73.08;101615.47;5053540;28;20436;-79
2024/02/29 10:56:36;;;;;;;10.13;5.57;;;;;;;4.15;72.52;101616.34;5052783;28;20469;-79
2024/02/29 10:59:04;;;;;;;9.93;5.33;;;;;;;4.16;72.66;101618.09;5052755;28;20450;-80
2024/02/29 11:01:32;;;;;;;8.13;3.63;;;;;;;4.19;72.03;101602.59;5052872;28;20533;-78
2024/02/29 11:03:59;;;;;;;12.47;6.90;;;;;;;4.21;71.81;101600.91;5052977;28;20531;-79
2024/02/29 11:06:27;;;;;;;9.77;4.93;;;;;;;4.23;71.40;101603.53;5052727;28;20483;-79
2024/02/29 11:08:55;;;;;;;10.30;5.10;;;;;;;4.24;71.39;101605.28;5052856;28;20449;-78
2024/02/29 11:11:26;;;;;;;10.13;5.17;;;;;;;4.26;71.36;101600.97;5052772;28;20790;-72
2024/02/29 11:14:03;;;;;;;10.60;5.73;;;;;;;4.27;71.62;101600.16;5052561;28;20439;-72
2024/02/29 11:16:32;;;;;;;12.57;6.70;;;;;;;4.29;71.41;101593.25;5056692;28;20445;-72
2024/02/29 11:19:02;;;;;;;14.00;6.33;;;;;;;4.29;71.35;101593.25;5056832;28;20429;-71
2024/02/29 11:21:29;;;;;;;13.23;7.30;;;;;;;4.32;70.95;101599.38;5056473;28;20441;-71
2024/02/29 11:24:02;;;;;;;13.40;6.90;;;;;;;4.33;70.51;101600.25;5056451;28;20217;-72
2024/02/29 11:26:32;;;;;;;12.47;6.43;;;;;;;4.33;70.51;101582.13;5056346;28;20930;-72
2024/02/29 11:29:00;;;;;;;13.43;6.40;;;;;;;4.34;70.37;101581.25;5056362;28;21088;-71
2024/02/29 11:31:27;;;;;;;9.97;5.07;;;;;;;4.34;70.50;101582.13;5056607;28;20244;-78
2024/02/29 11:33:55;;;;;;;12.10;6.53;;;;;;;4.33;70.54;101569.16;5056658;28;20528;-78